createdAt,value
2022-09-21T00:01:09.349Z,6.94
2022-09-21T00:03:38.202Z,6.88
2022-09-21T00:06:07.001Z,6.71
2022-09-21T00:08:35.142Z,6.52
2022-09-21T00:11:03.941Z,6.93
2022-09-21T00:13:33.124Z,6.90
2022-09-21T00:16:01.314Z,6.91
2022-09-21T00:18:31.099Z,6.97
2022-09-21T00:20:58.894Z,6.91
2022-09-21T00:23:27.030Z,6.73
2022-09-21T00:26:05.466Z,6.93
2022-09-21T00:28:33.432Z,6.94
2022-09-21T00:31:03.431Z,6.81
2022-09-21T00:33:33.114Z,6.55
2022-09-21T00:36:04.762Z,6.73
2022-09-21T00:38:32.609Z,6.76
2022-09-21T00:41:00.395Z,6.74
2022-09-21T00:43:28.564Z,6.72
2022-09-21T00:46:02.760Z,6.47
2022-09-21T00:48:32.539Z,6.56
2022-09-21T00:51:04.217Z,6.45
2022-09-21T00:53:33.123Z,5.97
2022-09-21T00:56:03.719Z,6.33
2022-09-21T00:58:32.430Z,6.57
2022-09-21T01:01:01.771Z,6.59
2022-09-21T01:03:33.437Z,6.27
2022-09-21T01:06:01.263Z,6.26
2022-09-21T01:08:30.322Z,6.38
2022-09-21T01:11:18.468Z,6.43
2022-09-21T01:14:00.212Z,6.30
2022-09-21T01:16:36.772Z,6.24
2022-09-21T01:19:17.462Z,6.28
2022-09-21T01:21:57.234Z,6.13
2022-09-21T01:25:00.469Z,5.95
2022-09-21T01:27:46.964Z,6.25
2022-09-21T01:30:18.276Z,6.13
2022-09-21T01:32:51.615Z,6.27
2022-09-21T01:35:22.900Z,5.90
2022-09-21T01:37:57.617Z,6.09
2022-09-21T01:40:34.560Z,6.16
2022-09-21T01:43:05.847Z,5.97
2022-09-21T01:45:40.299Z,5.76
2022-09-21T01:48:09.179Z,5.81
2022-09-21T01:50:41.447Z,6.00
2022-09-21T01:53:14.080Z,6.06
2022-09-21T01:55:46.161Z,6.04
2022-09-21T01:58:20.259Z,6.09
2022-09-21T02:00:55.240Z,6.12
2022-09-21T02:03:29.086Z,5.80
2022-09-21T02:05:58.252Z,6.20
2022-09-21T02:08:27.778Z,6.30
2022-09-21T02:10:55.968Z,6.16
2022-09-21T02:13:27.618Z,6.32
2022-09-21T02:16:15.740Z,6.30
2022-09-21T02:18:56.931Z,6.26
2022-09-21T02:21:30.966Z,6.30
2022-09-21T02:24:06.967Z,6.14
2022-09-21T02:26:40.955Z,6.08
2022-09-21T02:29:18.881Z,5.77
2022-09-21T02:31:54.927Z,6.08
2022-09-21T02:34:30.776Z,5.69
2022-09-21T02:37:04.951Z,5.49
2022-09-21T02:39:39.595Z,5.51
2022-09-21T02:42:11.290Z,5.47
2022-09-21T02:44:42.740Z,5.38
2022-09-21T02:47:17.606Z,5.22
2022-09-21T02:49:51.735Z,5.27
2022-09-21T02:52:21.559Z,5.47
2022-09-21T02:54:52.196Z,5.70
2022-09-21T02:57:22.914Z,5.70
2022-09-21T02:59:52.190Z,5.71
2022-09-21T03:02:21.364Z,5.77
2022-09-21T03:04:50.221Z,5.56
2022-09-21T03:07:18.596Z,5.58
2022-09-21T03:09:46.571Z,5.44
2022-09-21T03:12:14.429Z,5.62
2022-09-21T03:14:42.254Z,5.73
2022-09-21T03:17:10.065Z,5.73
2022-09-21T03:19:39.180Z,5.68
2022-09-21T03:22:06.975Z,6.02
2022-09-21T03:24:47.032Z,5.98
2022-09-21T03:27:15.553Z,6.33
2022-09-21T03:29:43.350Z,6.25
2022-09-21T03:32:11.374Z,6.23
2022-09-21T03:34:40.505Z,6.42
2022-09-21T03:37:10.249Z,6.35
2022-09-21T03:39:38.046Z,6.46
2022-09-21T03:42:05.986Z,6.34
2022-09-21T03:44:34.453Z,6.42
2022-09-21T03:47:02.374Z,6.04
2022-09-21T03:49:31.034Z,6.19
2022-09-21T03:52:00.248Z,6.40
2022-09-21T03:54:28.284Z,6.38
2022-09-21T03:56:56.134Z,6.25
2022-09-21T03:59:23.988Z,6.03
2022-09-21T04:01:51.896Z,6.09
2022-09-21T04:04:19.787Z,6.10
2022-09-21T04:06:47.612Z,5.95
2022-09-21T04:09:16.792Z,5.83
2022-09-21T04:11:46.100Z,5.87
2022-09-21T04:14:14.064Z,6.18
2022-09-21T04:16:41.918Z,6.27
2022-09-21T04:19:09.738Z,6.16
2022-09-21T04:21:37.678Z,6.03
2022-09-21T04:24:05.667Z,6.28
2022-09-21T04:26:36.447Z,6.15
2022-09-21T04:29:06.496Z,6.32
2022-09-21T04:31:34.993Z,6.24
2022-09-21T04:37:15.121Z,6.39
2022-09-21T04:39:42.857Z,6.57
2022-09-21T04:42:12.249Z,6.35
2022-09-21T04:44:40.099Z,6.33
2022-09-21T04:47:08.120Z,6.52
2022-09-21T04:49:36.002Z,6.45
2022-09-21T04:52:04.093Z,6.48
2022-09-21T04:54:32.828Z,6.49
2022-09-21T04:57:00.645Z,6.51
2022-09-21T04:59:29.781Z,6.39
2022-09-21T05:01:57.544Z,5.97
2022-09-21T05:04:25.406Z,6.30
2022-09-21T05:06:54.124Z,6.57
2022-09-21T05:09:39.733Z,6.49
2022-09-21T05:12:07.932Z,6.20
2022-09-21T05:14:37.655Z,5.98
2022-09-21T05:17:05.529Z,6.09
2022-09-21T05:19:33.341Z,6.01
2022-09-21T05:22:01.206Z,6.71
2022-09-21T05:24:29.150Z,6.73
2022-09-21T05:26:57.228Z,6.83
2022-09-21T05:29:25.638Z,6.88
2022-09-21T05:32:02.154Z,6.68
2022-09-21T05:34:46.027Z,6.97
2022-09-21T05:37:33.202Z,6.86
2022-09-21T05:40:01.744Z,6.94
2022-09-21T05:42:30.339Z,7.21
2022-09-21T05:44:59.369Z,6.65
2022-09-21T05:47:38.411Z,6.89
2022-09-21T05:50:21.035Z,6.60
2022-09-21T05:52:55.109Z,6.76
2022-09-21T05:55:30.774Z,6.64
2022-09-21T05:58:06.908Z,6.60
2022-09-21T06:00:45.454Z,6.13
2022-09-21T06:03:36.266Z,6.45
2022-09-21T06:06:04.664Z,6.45
2022-09-21T06:08:32.545Z,6.05
2022-09-21T06:11:00.425Z,6.31
2022-09-21T06:13:28.422Z,6.69
2022-09-21T06:15:56.359Z,6.60
2022-09-21T06:18:24.150Z,6.92
2022-09-21T06:20:53.271Z,6.51
2022-09-21T06:23:21.284Z,6.44
2022-09-21T06:25:57.546Z,6.43
2022-09-21T06:28:27.923Z,6.14
2022-09-21T06:30:57.328Z,6.57
2022-09-21T06:33:25.764Z,6.51
2022-09-21T06:35:56.619Z,6.67
2022-09-21T06:38:26.166Z,6.27
2022-09-21T06:40:54.730Z,6.41
2022-09-21T06:43:23.105Z,6.86
2022-09-21T06:45:55.561Z,6.63
2022-09-21T06:48:23.840Z,6.91
2022-09-21T06:50:51.795Z,6.51
2022-09-21T06:53:21.037Z,6.50
2022-09-21T06:55:49.369Z,6.62
2022-09-21T06:58:17.180Z,6.29
2022-09-21T07:00:45.079Z,6.62
2022-09-21T07:03:13.340Z,6.95
2022-09-21T07:05:42.031Z,6.68
2022-09-21T07:10:05.147Z,6.69
2022-09-21T07:11:00.879Z,7.02
2022-09-21T07:13:28.876Z,7.51
2022-09-21T07:15:56.934Z,7.44
2022-09-21T07:18:25.344Z,7.18
2022-09-21T07:20:53.625Z,7.21
2022-09-21T07:23:22.862Z,7.48
2022-09-21T07:25:52.607Z,8.02
2022-09-21T07:28:21.892Z,7.95
2022-09-21T07:30:49.889Z,7.84
2022-09-21T07:33:18.005Z,7.53
2022-09-21T07:35:52.303Z,7.71
2022-09-21T07:38:20.217Z,7.86
2022-09-21T07:40:48.272Z,7.91
2022-09-21T07:43:16.456Z,7.29
2022-09-21T07:45:53.841Z,7.85
2022-09-21T07:48:22.709Z,8.20
2022-09-21T07:50:50.580Z,8.00
2022-09-21T07:53:18.699Z,8.21
2022-09-21T07:55:47.698Z,8.09
2022-09-21T07:58:33.176Z,7.67
2022-09-21T08:01:06.239Z,8.04
2022-09-21T08:03:34.150Z,8.26
2022-09-21T08:06:01.899Z,8.33
2022-09-21T08:08:29.667Z,8.15
2022-09-21T08:11:03.936Z,8.01
2022-09-21T08:13:31.785Z,8.06
2022-09-21T08:16:00.261Z,8.37
2022-09-21T08:18:30.887Z,8.71
2022-09-21T08:20:59.458Z,8.66
2022-09-21T08:23:29.068Z,8.33
2022-09-21T08:26:00.278Z,8.41
2022-09-21T08:28:28.482Z,8.89
2022-09-21T08:31:00.404Z,8.66
2022-09-21T08:33:31.124Z,8.71
2022-09-21T08:36:00.862Z,8.78
2022-09-21T08:38:34.312Z,9.28
2022-09-21T08:41:03.516Z,9.64
2022-09-21T08:43:36.579Z,8.75
2022-09-21T08:46:10.028Z,8.48
2022-09-21T08:48:43.020Z,9.63
2022-09-21T08:51:15.166Z,9.62
2022-09-21T08:53:45.898Z,10.17
2022-09-21T08:56:15.295Z,9.78
2022-09-21T08:58:43.725Z,10.01
2022-09-21T09:01:29.735Z,10.05
2022-09-21T09:04:18.085Z,10.87
2022-09-21T09:06:53.510Z,10.70
2022-09-21T09:09:35.592Z,11.19
2022-09-21T09:12:17.382Z,10.95
2022-09-21T09:15:08.651Z,10.59
2022-09-21T09:17:49.296Z,11.26
2022-09-21T09:20:20.346Z,11.03
2022-09-21T09:22:58.199Z,11.62
2022-09-21T09:25:26.019Z,11.62
2022-09-21T09:27:57.520Z,11.48
2022-09-21T09:30:27.349Z,12.22
2022-09-21T09:33:00.995Z,12.08
2022-09-21T09:35:33.256Z,11.78
2022-09-21T09:38:06.594Z,12.17
2022-09-21T09:40:57.901Z,12.19
2022-09-21T09:43:40.135Z,13.06
2022-09-21T09:46:17.889Z,12.96
2022-09-21T09:49:14.930Z,13.38
2022-09-21T09:51:44.662Z,13.00
2022-09-21T09:59:03.103Z,12.63
2022-09-21T11:54:33.493Z,18.39
2022-09-21T11:57:22.192Z,18.55
2022-09-21T12:00:29.010Z,19.00
2022-09-21T12:03:41.565Z,19.64
2022-09-21T12:06:53.097Z,19.87
2022-09-21T12:09:45.313Z,18.94
2022-09-21T12:12:31.214Z,19.00
2022-09-21T12:15:18.565Z,19.05
2022-09-21T12:17:58.505Z,17.91
2022-09-21T12:20:42.642Z,19.14
2022-09-21T12:23:20.152Z,19.36
2022-09-21T12:26:08.835Z,19.18
2022-09-21T12:28:47.279Z,19.34
2022-09-21T12:31:26.417Z,19.16
2022-09-21T12:34:11.449Z,19.69
2022-09-21T12:37:11.338Z,19.68
2022-09-21T12:39:48.979Z,19.16
2022-09-21T12:42:32.276Z,19.17
2022-09-21T12:45:09.745Z,19.14
2022-09-21T12:47:51.550Z,18.66
2022-09-21T12:50:29.783Z,19.51
2022-09-21T12:53:00.986Z,20.28
2022-09-21T12:55:41.675Z,17.97
2022-09-21T12:58:23.746Z,18.85
2022-09-21T13:01:03.327Z,19.63
2022-09-21T13:03:37.294Z,20.64
2022-09-21T13:06:39.778Z,20.02
2022-09-21T13:09:12.294Z,19.74
2022-09-21T13:11:52.574Z,18.59
2022-09-21T13:14:24.269Z,19.62
2022-09-21T13:16:58.633Z,20.18
2022-09-21T13:19:29.116Z,19.92
2022-09-21T13:22:19.042Z,18.89
2022-09-21T13:24:59.443Z,19.78
2022-09-21T13:28:04.349Z,19.55
2022-09-21T13:30:40.527Z,19.15
2022-09-21T13:33:31.901Z,18.24
2022-09-21T13:36:08.490Z,18.32
2022-09-21T13:38:59.239Z,18.60
2022-09-21T13:41:45.769Z,19.18
2022-09-21T13:44:20.270Z,19.45
2022-09-21T13:46:57.626Z,18.85
2022-09-21T13:50:00.298Z,19.23
2022-09-21T13:52:43.883Z,19.28
2022-09-21T13:55:29.510Z,19.49
2022-09-21T13:58:00.089Z,19.58
2022-09-21T14:00:44.362Z,19.77
2022-09-21T14:03:27.286Z,19.11
2022-09-21T14:06:06.672Z,19.42
2022-09-21T14:08:43.160Z,19.12
2022-09-21T14:11:19.158Z,19.34
2022-09-21T14:14:03.864Z,19.73
2022-09-21T14:16:56.931Z,19.28
2022-09-21T14:20:12.101Z,19.69
2022-09-21T14:22:46.612Z,18.38
2022-09-21T14:25:54.660Z,18.67
2022-09-21T14:28:37.823Z,18.90
2022-09-21T14:31:18.854Z,18.64
2022-09-21T14:34:10.105Z,18.80
2022-09-21T14:36:45.938Z,19.05
2022-09-21T14:39:27.587Z,18.68
2022-09-21T14:42:01.389Z,19.02
2022-09-21T14:44:41.064Z,19.36
2022-09-21T14:47:30.194Z,19.28
2022-09-21T14:50:20.593Z,19.01
2022-09-21T14:53:16.008Z,19.46
2022-09-21T14:56:17.225Z,19.10
2022-09-21T14:59:06.347Z,19.11
2022-09-21T15:01:48.467Z,18.13
2022-09-21T15:04:46.056Z,17.92
2022-09-21T15:07:55.609Z,18.66
2022-09-21T15:10:48.930Z,18.75
2022-09-21T15:13:43.436Z,19.73
2022-09-21T15:16:28.568Z,19.04
2022-09-21T15:19:16.460Z,19.03
2022-09-21T15:21:51.830Z,18.36
2022-09-21T15:24:32.974Z,18.78
2022-09-21T15:27:10.889Z,19.08
2022-09-21T15:29:57.893Z,18.84
2022-09-21T15:32:43.612Z,18.28
2022-09-21T15:35:20.213Z,18.65
2022-09-21T15:37:51.730Z,18.15
2022-09-21T15:40:23.284Z,18.28
2022-09-21T15:43:03.914Z,18.38
2022-09-21T15:45:45.936Z,18.51
2022-09-21T15:48:17.734Z,18.53
2022-09-21T15:50:51.143Z,18.03
2022-09-21T15:53:23.689Z,18.57
2022-09-21T15:55:52.382Z,18.42
2022-09-21T15:58:35.731Z,18.63
2022-09-21T16:01:12.886Z,17.99
2022-09-21T16:03:41.912Z,17.90
2022-09-21T16:06:26.078Z,17.93
2022-09-21T16:08:54.650Z,18.58
2022-09-21T16:11:35.744Z,18.41
2022-09-21T16:14:24.999Z,18.33
2022-09-21T16:17:25.995Z,18.08
2022-09-21T16:20:19.739Z,18.17
2022-09-21T16:22:50.137Z,17.59
2022-09-21T16:25:37.166Z,17.60
2022-09-21T16:28:09.775Z,17.74
2022-09-21T16:30:45.148Z,17.15
2022-09-21T16:33:41.138Z,17.26
2022-09-21T16:36:40.711Z,17.49
2022-09-21T16:39:17.353Z,17.19
2022-09-21T16:41:52.112Z,16.83
2022-09-21T16:44:22.843Z,17.02
2022-09-21T16:46:59.816Z,17.58
2022-09-21T16:49:32.657Z,17.47
2022-09-21T16:52:01.319Z,17.50
2022-09-21T16:54:29.921Z,17.36
2022-09-21T16:56:59.632Z,17.23
2022-09-21T16:59:28.320Z,17.28
2022-09-21T17:01:57.928Z,17.11
2022-09-21T17:04:28.179Z,16.90
2022-09-21T17:06:58.554Z,16.47
2022-09-21T17:09:30.060Z,16.58
2022-09-21T17:12:01.392Z,16.28
2022-09-21T17:14:35.527Z,15.98
2022-09-21T17:17:08.442Z,15.92
2022-09-21T17:19:36.842Z,15.77
2022-09-21T17:22:07.061Z,15.62
2022-09-21T17:24:50.398Z,15.15
2022-09-21T17:27:21.256Z,15.01
2022-09-21T17:29:50.177Z,15.00
2022-09-21T17:32:20.865Z,14.97
2022-09-21T17:34:53.267Z,14.86
2022-09-21T17:37:24.228Z,14.78
2022-09-21T17:39:53.568Z,14.63
2022-09-21T17:42:25.885Z,14.44
2022-09-21T17:45:12.645Z,14.30
2022-09-21T17:47:41.642Z,13.87
2022-09-21T17:50:20.139Z,13.85
2022-09-21T17:53:07.371Z,13.73
2022-09-21T17:55:35.870Z,13.74
2022-09-21T17:58:36.997Z,13.54
2022-09-21T18:01:07.427Z,13.16
2022-09-21T18:03:41.081Z,13.03
2022-09-21T18:06:10.524Z,12.81
2022-09-21T18:08:41.419Z,12.79
2022-09-21T18:11:27.709Z,12.79
2022-09-21T18:14:05.561Z,12.68
2022-09-21T18:16:40.997Z,12.21
2022-09-21T18:19:35.255Z,11.77
2022-09-21T18:22:16.057Z,12.09
2022-09-21T18:24:46.584Z,11.70
2022-09-21T18:27:17.765Z,11.98
2022-09-21T18:29:46.280Z,11.89
2022-09-21T18:32:32.258Z,11.55
2022-09-21T18:35:19.515Z,11.70
2022-09-21T18:37:59.482Z,11.83
2022-09-21T18:40:37.153Z,11.99
2022-09-21T18:43:18.756Z,12.01
2022-09-21T18:45:53.117Z,11.79
2022-09-21T18:48:32.458Z,11.61
2022-09-21T18:51:11.675Z,11.66
2022-09-21T18:53:46.622Z,11.29
2022-09-21T18:56:17.213Z,11.45
2022-09-21T18:58:45.209Z,11.67
2022-09-21T19:01:14.571Z,11.32
2022-09-21T19:03:44.000Z,11.11
2022-09-21T19:06:27.402Z,10.76
2022-09-21T19:09:02.029Z,10.71
2022-09-21T19:11:35.054Z,10.79
2022-09-21T19:14:12.109Z,10.66
2022-09-21T19:16:51.598Z,10.45
2022-09-21T19:19:30.806Z,9.85
2022-09-21T19:22:04.874Z,9.90
2022-09-21T19:24:38.143Z,9.86
2022-09-21T19:27:18.754Z,9.95
2022-09-21T19:29:54.582Z,9.90
2022-09-21T19:32:40.732Z,9.75
2022-09-21T19:35:21.322Z,9.69
2022-09-21T19:37:49.286Z,9.92
2022-09-21T19:40:19.223Z,10.02
2022-09-21T19:43:20.606Z,10.02
2022-09-21T19:46:04.439Z,10.00
2022-09-21T19:48:40.803Z,10.01
2022-09-21T19:51:16.121Z,9.68
2022-09-21T19:54:02.195Z,9.66
2022-09-21T19:56:54.716Z,9.80
2022-09-21T19:59:42.977Z,9.77
2022-09-21T20:02:13.477Z,9.85
2022-09-21T20:04:45.993Z,9.61
2022-09-21T20:07:22.546Z,9.74
2022-09-21T20:10:06.536Z,9.58
2022-09-21T20:12:42.309Z,9.63
2022-09-21T20:15:17.877Z,9.62
2022-09-21T20:17:50.290Z,9.34
2022-09-21T20:20:22.701Z,9.03
2022-09-21T20:22:51.321Z,8.83
2022-09-21T20:25:24.458Z,8.97
2022-09-21T20:27:55.257Z,9.16
2022-09-21T20:30:26.491Z,8.89
2022-09-21T20:32:57.328Z,9.10
2022-09-21T20:35:27.670Z,8.90
2022-09-21T20:37:59.858Z,8.90
2022-09-21T20:40:30.169Z,8.98
2022-09-21T20:42:58.265Z,8.94
2022-09-21T20:45:27.635Z,8.70
2022-09-21T20:47:57.215Z,8.82
2022-09-21T20:50:30.406Z,8.86
2022-09-21T20:52:58.686Z,8.45
2022-09-21T20:55:29.196Z,8.65
2022-09-21T20:57:56.824Z,8.83
2022-09-21T21:00:24.610Z,8.67
2022-09-21T21:02:54.071Z,8.68
2022-09-21T21:05:22.222Z,8.51
2022-09-21T21:07:50.089Z,8.57
2022-09-21T21:10:19.121Z,8.37
2022-09-21T21:12:46.950Z,8.39
2022-09-21T21:15:14.884Z,8.40
2022-09-21T21:17:43.187Z,8.39
2022-09-21T21:20:12.948Z,7.50
2022-09-21T21:22:40.843Z,8.12
2022-09-21T21:25:09.963Z,8.22
2022-09-21T21:27:38.237Z,8.22
2022-09-21T21:30:07.590Z,8.16
2022-09-21T21:32:36.117Z,8.27
2022-09-21T21:35:04.867Z,8.19
2022-09-21T21:37:34.045Z,8.11
2022-09-21T21:40:02.426Z,8.25
2022-09-21T21:42:31.431Z,8.18
2022-09-21T21:44:59.352Z,8.03
2022-09-21T21:47:39.392Z,7.99
2022-09-21T21:50:08.537Z,7.84
2022-09-21T21:52:38.166Z,7.72
2022-09-21T21:55:06.743Z,7.58
2022-09-21T21:57:34.842Z,7.67
2022-09-21T22:00:03.276Z,7.63
2022-09-21T22:02:32.789Z,7.87
2022-09-21T22:05:00.720Z,7.75
2022-09-21T22:07:28.505Z,7.40
2022-09-21T22:09:57.616Z,7.26
2022-09-21T22:12:26.136Z,7.18
2022-09-21T22:14:53.938Z,7.06
2022-09-21T22:17:21.693Z,7.48
2022-09-21T22:19:49.540Z,7.59
2022-09-21T22:22:17.344Z,7.68
2022-09-21T22:24:45.214Z,7.50
2022-09-21T22:27:14.384Z,7.35
2022-09-21T22:29:42.179Z,7.39
2022-09-21T22:32:09.981Z,7.07
2022-09-21T22:34:37.886Z,7.32
2022-09-21T22:37:05.786Z,7.40
2022-09-21T22:39:33.544Z,7.27
2022-09-21T22:42:01.509Z,7.32
2022-09-21T22:44:30.896Z,7.31
2022-09-21T22:46:58.687Z,7.40
2022-09-21T22:49:26.429Z,7.24
2022-09-21T22:51:54.268Z,7.18
2022-09-21T22:54:22.023Z,7.20
2022-09-21T22:56:49.834Z,6.82
2022-09-21T22:59:17.572Z,7.05
2022-09-21T23:01:46.687Z,7.10
2022-09-21T23:04:14.748Z,7.23
2022-09-21T23:06:44.268Z,7.14
2022-09-21T23:09:15.754Z,6.79
2022-09-21T23:11:47.347Z,6.79
2022-09-21T23:14:15.822Z,6.72
2022-09-21T23:16:44.170Z,6.79
2022-09-21T23:19:16.331Z,6.74
2022-09-21T23:21:45.640Z,6.78
2022-09-21T23:24:13.797Z,6.87
2022-09-21T23:26:41.727Z,7.02
2022-09-21T23:29:12.822Z,6.92
2022-09-21T23:31:44.762Z,6.44
2022-09-21T23:34:15.677Z,6.66
2022-09-21T23:36:45.143Z,6.74
2022-09-21T23:39:14.929Z,6.42
2022-09-21T23:41:43.229Z,6.49
2022-09-21T23:44:11.097Z,6.65
2022-09-21T23:46:40.258Z,6.46
2022-09-21T23:49:08.418Z,6.73
2022-09-21T23:51:38.026Z,6.37
2022-09-21T23:54:06.147Z,6.51
2022-09-21T23:56:34.210Z,6.42
2022-09-21T23:59:02.213Z,6.34
